Time;durP1;ratioP1;P1;durP2;ratioP2;P2;SDS_P1;SDS_P2;PMS_P1;PMS_P2;Temp;Humidity;BMP_temperature;BMP_pressure;BME280_temperature;BME280_humidity;BME280_pressure;Samples;Min_cycle;Max_cycle;Signal;HPM_P1;HPM_P2
2022/11/09 00:01:38;;;;;;;2.47;1.20;;;13.60;55.30;;;;;;5016745;28;20026;-83
2022/11/09 00:04:08;;;;;;;2.30;1.30;;;13.60;55.40;;;;;;5016316;28;20390;-83
2022/11/09 00:06:35;;;;;;;2.53;1.30;;;13.60;55.60;;;;;;5016053;28;20120;-83
2022/11/09 00:09:04;;;;;;;3.65;1.10;;;13.60;55.70;;;;;;5015993;28;20141;-83
2022/11/09 00:11:32;;;;;;;3.88;1.40;;;13.60;55.90;;;;;;5015508;28;20025;-83
2022/11/09 00:14:02;;;;;;;4.47;1.58;;;13.50;56.70;;;;;;5015726;28;20553;-82
2022/11/09 00:16:30;;;;;;;1.98;1.25;;;13.50;56.00;;;;;;5000054;28;20029;-81
2022/11/09 00:18:56;;;;;;;2.45;1.27;;;13.60;56.20;;;;;;5032855;28;20061;-82
2022/11/09 00:21:27;;;;;;;1.40;0.95;;;13.60;55.90;;;;;;5016101;28;20445;-80
2022/11/09 00:23:55;;;;;;;2.80;1.30;;;13.60;56.40;;;;;;5032677;28;20061;-82
2022/11/09 00:26:26;;;;;;;4.32;1.33;;;13.70;56.60;;;;;;5033762;28;20021;-81
2022/11/09 00:28:59;;;;;;;2.10;1.35;;;13.70;56.50;;;;;;5019862;28;20481;-80
2022/11/09 00:31:27;;;;;;;6.18;1.50;;;13.90;56.20;;;;;;5037240;28;20067;-82
2022/11/09 00:33:57;;;;;;;2.38;1.33;;;13.90;56.00;;;;;;5002754;28;20073;-81
2022/11/09 00:36:26;;;;;;;3.00;1.10;;;14.00;55.70;;;;;;5018479;28;20382;-81
2022/11/09 00:39:15;;;;;;;5.10;1.40;;;14.00;55.80;;;;;;5000297;28;20044;-81
2022/11/09 00:42:01;;;;;;;4.35;1.55;;;14.10;56.20;;;;;;5031884;28;20079;-86
2022/11/09 00:44:28;;;;;;;2.58;1.05;;;14.10;55.70;;;;;;5000147;28;20164;-85
2022/11/09 00:46:55;;;;;;;2.78;1.50;;;14.20;55.80;;;;;;5017721;28;20029;-81
2022/11/09 00:49:44;;;;;;;2.92;1.15;;;14.20;55.70;;;;;;5032317;28;20052;-83
2022/11/09 00:52:12;;;;;;;4.32;1.25;;;14.20;55.80;;;;;;5026937;28;20045;-82
2022/11/09 00:54:41;;;;;;;5.15;1.40;;;14.30;56.10;;;;;;5015014;28;20056;-82
2022/11/09 00:57:10;;;;;;;1.80;1.13;;;14.30;55.00;;;;;;5015534;28;20029;-82
2022/11/09 01:00:22;;;;;;;4.25;1.35;;;14.40;55.10;;;;;;4998903;28;20030;-82
2022/11/09 01:03:30;;;;;;;2.97;1.10;;;14.40;55.60;;;;;;5032972;28;20025;-83
2022/11/09 01:06:02;;;;;;;2.60;1.50;;;14.40;54.90;;;;;;5033119;28;20029;-82
2022/11/09 01:08:36;;;;;;;3.25;1.40;;;14.50;55.00;;;;;;5014475;28;20034;-81
2022/11/09 01:11:07;;;;;;;2.75;1.23;;;14.40;54.70;;;;;;5031010;28;20033;-82
2022/11/09 01:13:35;;;;;;;2.60;1.08;;;14.40;54.80;;;;;;4979640;28;20406;-83
2022/11/09 01:16:05;;;;;;;2.33;1.10;;;14.40;54.90;;;;;;5015027;28;20030;-82
2022/11/09 01:18:31;;;;;;;3.90;1.58;;;14.40;54.80;;;;;;4979256;28;20129;-82
2022/11/09 01:20:57;;;;;;;2.80;1.30;;;14.40;55.20;;;;;;4995445;28;20117;-83
2022/11/09 01:23:24;;;;;;;2.22;1.20;;;14.40;54.90;;;;;;4996104;28;20169;-83
2022/11/09 01:26:00;;;;;;;4.45;1.55;;;14.30;55.60;;;;;;4999526;28;20034;-83
2022/11/09 01:28:26;;;;;;;4.72;1.27;;;14.20;56.70;;;;;;4999569;28;20030;-83
2022/11/09 01:31:19;;;;;;;5.80;1.20;;;14.20;55.80;;;;;;4999508;28;20029;-86
2022/11/09 01:33:47;;;;;;;3.13;1.25;;;14.20;55.30;;;;;;4987386;28;20041;-87
2022/11/09 01:36:36;;;;;;;4.82;1.08;;;14.20;55.40;;;;;;4999865;28;20055;-87
2022/11/09 01:39:28;;;;;;;2.75;1.52;;;14.20;54.80;;;;;;4982567;28;20042;-86
2022/11/09 01:41:55;;;;;;;1.35;0.82;;;14.20;54.20;;;;;;4999645;28;20034;-86
2022/11/09 01:44:24;;;;;;;2.08;1.30;;;14.20;54.30;;;;;;4983471;28;20026;-86
2022/11/09 01:46:54;;;;;;;2.00;1.13;;;14.20;54.60;;;;;;4999965;28;20105;-86
2022/11/09 01:50:13;;;;;;;2.45;0.98;;;14.10;54.70;;;;;;5034932;28;20132;-86
2022/11/09 01:52:48;;;;;;;3.55;1.17;;;14.10;54.70;;;;;;5031237;28;20105;-86
2022/11/09 01:55:22;;;;;;;2.55;1.23;;;14.10;55.10;;;;;;5019244;28;20082;-86
2022/11/09 01:58:11;;;;;;;4.63;1.55;;;14.10;55.60;;;;;;5015748;28;20040;-83
2022/11/09 02:00:42;;;;;;;2.80;1.27;;;14.00;56.20;;;;;;5018966;28;20041;-84
2022/11/09 02:03:32;;;;;;;4.15;1.40;;;14.00;56.40;;;;;;5031051;28;20112;-84
2022/11/09 02:06:13;;;;;;;3.15;1.20;;;14.00;56.80;;;;;;5021734;28;20029;-84
2022/11/09 02:08:48;;;;;;;4.85;1.20;;;14.00;56.80;;;;;;5036518;28;20034;-84
2022/11/09 02:11:20;;;;;;;5.22;1.52;;;14.00;56.30;;;;;;5002567;28;20107;-84
2022/11/09 02:14:11;;;;;;;4.07;1.17;;;14.10;56.90;;;;;;4985951;28;20044;-84
2022/11/09 02:16:40;;;;;;;1.70;0.90;;;14.10;55.90;;;;;;5020558;28;20445;-84
2022/11/09 02:19:07;;;;;;;2.50;1.20;;;14.10;55.70;;;;;;5017538;28;20043;-83
2022/11/09 02:21:35;;;;;;;2.03;1.08;;;14.10;56.00;;;;;;5035733;28;20048;-83
2022/11/09 02:24:06;;;;;;;1.95;1.23;;;14.10;56.20;;;;;;5017667;28;20394;-82
2022/11/09 02:26:56;;;;;;;2.75;1.55;;;14.00;57.00;;;;;;4986997;28;20116;-84
2022/11/09 02:29:36;;;;;;;1.38;0.88;;;14.00;57.70;;;;;;5017496;28;20187;-83
2022/11/09 02:32:16;;;;;;;1.25;1.10;;;13.90;58.20;;;;;;5036128;28;20031;-84
2022/11/09 02:34:52;;;;;;;3.67;1.20;;;13.90;58.60;;;;;;4998100;28;20041;-83
2022/11/09 02:37:58;;;;;;;1.70;1.20;;;13.80;58.80;;;;;;5017783;28;20033;-82
2022/11/09 02:40:36;;;;;;;1.20;0.98;;;13.80;60.20;;;;;;5004572;28;20038;-84
2022/11/09 02:43:27;;;;;;;1.73;1.10;;;13.70;60.00;;;;;;5007968;28;20101;-84
2022/11/09 02:46:49;;;;;;;1.35;1.10;;;13.60;60.10;;;;;;5019128;28;20048;-84
2022/11/09 02:49:18;;;;;;;3.55;1.23;;;13.60;60.30;;;;;;5032955;28;20046;-83
2022/11/09 02:51:45;;;;;;;2.72;1.10;;;13.60;60.60;;;;;;5017863;28;20367;-84
2022/11/09 02:54:27;;;;;;;3.97;1.30;;;13.60;61.00;;;;;;5001588;28;20054;-84
2022/11/09 02:57:16;;;;;;;1.48;1.10;;;13.50;61.20;;;;;;5000879;28;20048;-84
2022/11/09 02:59:43;;;;;;;1.50;1.10;;;13.50;61.00;;;;;;5010839;28;20171;-84
2022/11/09 03:02:11;;;;;;;2.50;1.73;;;13.50;61.50;;;;;;5017870;28;20030;-83
2022/11/09 03:04:58;;;;;;;2.28;1.55;;;13.50;62.10;;;;;;5034993;28;20029;-83
2022/11/09 03:07:41;;;;;;;4.68;1.70;;;13.40;62.10;;;;;;4981674;28;20163;-83
2022/11/09 03:10:08;;;;;;;4.30;1.58;;;13.40;63.00;;;;;;5028325;28;20038;-85
2022/11/09 03:12:34;;;;;;;1.45;1.30;;;13.40;62.40;;;;;;5001170;28;20039;-82
2022/11/09 03:15:02;;;;;;;2.38;1.58;;;13.30;63.10;;;;;;4985345;28;20034;-86
2022/11/09 03:17:32;;;;;;;3.55;1.52;;;13.10;64.00;;;;;;5002074;28;20029;-85
2022/11/09 03:19:57;;;;;;;2.60;1.55;;;13.00;64.40;;;;;;5035915;28;20029;-86
2022/11/09 03:22:24;;;;;;;5.90;1.95;;;13.00;64.90;;;;;;5000901;28;20548;-86
2022/11/09 03:24:50;;;;;;;4.07;1.90;;;12.90;67.10;;;;;;5017090;28;20021;-85
2022/11/09 03:27:19;;;;;;;3.85;2.05;;;12.90;67.60;;;;;;4984791;28;20075;-83
2022/11/09 03:29:44;;;;;;;5.28;1.83;;;12.80;68.20;;;;;;5000926;28;20367;-82
2022/11/09 03:32:10;;;;;;;4.78;1.67;;;12.70;68.70;;;;;;5000901;28;20063;-82
2022/11/09 03:34:35;;;;;;;3.10;1.73;;;12.80;69.00;;;;;;5016555;28;20504;-82
2022/11/09 03:37:01;;;;;;;4.18;1.40;;;12.70;69.70;;;;;;5016795;28;20029;-83
2022/11/09 03:39:27;;;;;;;4.32;1.77;;;12.70;70.10;;;;;;5016755;28;20033;-82
2022/11/09 03:41:53;;;;;;;4.63;1.73;;;12.60;70.30;;;;;;5000268;28;20029;-85
2022/11/09 03:44:20;;;;;;;3.35;1.80;;;12.60;71.00;;;;;;5016729;28;20513;-82
2022/11/09 03:46:51;;;;;;;3.85;2.15;;;12.60;71.40;;;;;;5016073;28;20034;-83
2022/11/09 03:49:22;;;;;;;3.25;1.80;;;12.60;71.60;;;;;;4999880;28;20046;-83
2022/11/09 03:51:49;;;;;;;3.38;2.03;;;12.60;72.60;;;;;;5034909;28;20090;-84
2022/11/09 03:54:15;;;;;;;3.83;2.13;;;12.60;72.40;;;;;;5015879;28;20038;-84
2022/11/09 03:56:43;;;;;;;6.15;1.95;;;12.50;73.20;;;;;;5000106;28;20026;-84
2022/11/09 03:59:15;;;;;;;4.35;2.63;;;12.50;73.20;;;;;;5016533;28;20504;-84
2022/11/09 04:01:45;;;;;;;4.22;2.28;;;12.40;75.50;;;;;;5016371;28;20044;-85
2022/11/09 04:04:10;;;;;;;3.00;2.00;;;12.30;75.70;;;;;;5000711;28;20474;-85
2022/11/09 04:06:38;;;;;;;3.80;2.10;;;12.30;75.20;;;;;;5000517;28;20041;-84
2022/11/09 04:09:04;;;;;;;5.35;2.20;;;12.30;76.30;;;;;;4983637;28;20133;-85
2022/11/09 04:11:43;;;;;;;4.38;2.50;;;12.30;77.30;;;;;;5000120;28;20482;-84
2022/11/09 04:14:19;;;;;;;3.13;1.92;;;12.20;76.90;;;;;;5017649;28;20508;-83
2022/11/09 04:16:45;;;;;;;4.75;2.15;;;12.20;77.30;;;;;;5016565;28;20053;-85
2022/11/09 04:19:23;;;;;;;5.53;2.58;;;12.20;77.80;;;;;;5033479;28;20054;-83
2022/11/09 04:21:53;;;;;;;3.83;2.08;;;12.20;78.30;;;;;;5016360;28;20065;-83
2022/11/09 04:24:19;;;;;;;4.93;2.45;;;12.20;78.70;;;;;;5033698;28;20441;-83
2022/11/09 04:26:50;;;;;;;2.88;2.20;;;12.20;79.10;;;;;;4983337;28;20030;-83
2022/11/09 04:29:20;;;;;;;2.20;1.80;;;12.30;79.50;;;;;;5013716;28;20087;-84
2022/11/09 04:31:54;;;;;;;6.20;2.00;;;12.20;80.00;;;;;;5015696;28;20087;-84
2022/11/09 04:34:20;;;;;;;3.22;1.77;;;12.20;80.40;;;;;;4983521;28;20099;-84
2022/11/09 04:42:27;;;;;;;4.72;1.90;;;12.10;82.40;;;;;;5363702;23;20046;-83
2022/11/09 04:44:52;;;;;;;4.80;2.05;;;12.00;83.00;;;;;;4995977;28;20053;-84
2022/11/09 04:47:18;;;;;;;7.72;1.98;;;12.10;83.10;;;;;;5011762;28;20044;-84
2022/11/09 04:49:43;;;;;;;3.95;1.90;;;12.10;83.60;;;;;;4995637;28;20022;-84
2022/11/09 04:52:09;;;;;;;8.48;2.13;;;12.10;83.80;;;;;;4995933;28;20030;-85
2022/11/09 04:54:34;;;;;;;2.85;1.88;;;12.10;83.70;;;;;;5012565;28;20383;-86
2022/11/09 04:57:00;;;;;;;4.38;1.70;;;12.00;83.60;;;;;;4996371;28;20014;-87
2022/11/09 04:59:25;;;;;;;3.22;1.98;;;12.20;84.70;;;;;;5012236;28;20164;-84
2022/11/09 05:01:51;;;;;;;5.15;2.40;;;12.30;84.80;;;;;;5013412;28;20026;-84
2022/11/09 05:04:17;;;;;;;3.40;1.77;;;12.40;83.30;;;;;;5013832;28;20039;-85
2022/11/09 05:06:42;;;;;;;3.67;1.77;;;12.50;83.00;;;;;;5014221;28;20026;-85
2022/11/09 05:09:08;;;;;;;9.63;2.95;;;12.50;83.10;;;;;;4996371;28;20026;-79
2022/11/09 05:11:34;;;;;;;11.32;3.65;;;12.60;82.90;;;;;;5012283;28;20049;-85
2022/11/09 05:14:00;;;;;;;15.15;3.55;;;12.60;83.10;;;;;;5014181;28;20034;-82
2022/11/09 05:16:28;;;;;;;16.95;3.17;;;12.80;82.30;;;;;;5013472;28;20022;-86
2022/11/09 05:18:53;;;;;;;5.97;2.30;;;13.10;82.10;;;;;;5015663;28;20049;-90
2022/11/09 05:21:20;;;;;;;5.25;1.63;;;13.20;81.20;;;;;;5015593;28;20064;-88
2022/11/09 05:23:57;;;;;;;3.45;2.00;;;13.30;79.90;;;;;;5014467;28;20072;-83
2022/11/09 05:26:24;;;;;;;4.90;1.73;;;13.20;79.60;;;;;;4995057;28;20022;-82
2022/11/09 05:28:51;;;;;;;4.97;1.83;;;13.20;80.20;;;;;;5012903;28;20479;-78
2022/11/09 05:31:17;;;;;;;5.38;1.50;;;13.20;79.80;;;;;;5013035;28;20026;-80
2022/11/09 05:33:43;;;;;;;3.72;1.67;;;12.90;80.90;;;;;;5012471;28;20034;-78
2022/11/09 05:36:08;;;;;;;3.20;1.67;;;12.70;81.90;;;;;;5011590;28;20026;-80
2022/11/09 05:38:34;;;;;;;4.22;1.30;;;12.50;82.60;;;;;;5012809;28;20076;-79
2022/11/09 05:41:00;;;;;;;4.53;2.20;;;12.40;84.10;;;;;;5012361;28;20569;-80
2022/11/09 05:43:25;;;;;;;5.47;1.77;;;12.30;83.90;;;;;;5012695;28;20083;-79
2022/11/09 05:45:51;;;;;;;2.90;1.38;;;12.20;84.40;;;;;;5012607;28;20411;-80
2022/11/09 05:48:17;;;;;;;3.75;1.73;;;12.20;84.50;;;;;;5012837;28;20040;-79
2022/11/09 05:50:43;;;;;;;2.85;1.40;;;12.20;85.00;;;;;;5012837;28;20025;-80
2022/11/09 05:53:11;;;;;;;2.60;1.55;;;12.20;85.20;;;;;;5012755;28;20029;-79
2022/11/09 05:55:37;;;;;;;2.63;1.23;;;12.10;85.40;;;;;;5013074;28;20414;-80
2022/11/09 05:58:02;;;;;;;1.40;1.10;;;12.10;85.10;;;;;;5012957;28;20022;-79
2022/11/09 06:00:28;;;;;;;2.55;1.90;;;12.10;85.20;;;;;;5015570;28;20030;-79
2022/11/09 06:03:02;;;;;;;1.77;1.10;;;12.20;84.80;;;;;;4995160;28;20069;-79
2022/11/09 06:05:27;;;;;;;4.05;1.10;;;12.20;84.70;;;;;;5012720;28;20014;-79
2022/11/09 06:07:53;;;;;;;4.50;1.23;;;12.30;83.70;;;;;;5012699;28;20034;-78
2022/11/09 06:10:18;;;;;;;2.63;1.25;;;12.40;83.70;;;;;;5014694;28;20052;-80
2022/11/09 06:12:48;;;;;;;2.25;0.80;;;12.50;82.40;;;;;;5016093;28;20030;-81
2022/11/09 06:15:14;;;;;;;2.15;1.10;;;12.60;82.10;;;;;;5015990;28;20032;-79
2022/11/09 06:17:39;;;;;;;1.75;1.13;;;12.60;81.90;;;;;;5014825;28;20034;-79
2022/11/09 06:20:05;;;;;;;1.98;1.02;;;12.70;81.60;;;;;;5015896;28;20033;-81
2022/11/09 06:22:31;;;;;;;2.20;1.00;;;12.80;80.70;;;;;;5015880;28;20429;-80
2022/11/09 06:24:56;;;;;;;2.50;1.25;;;12.90;80.80;;;;;;5015921;28;20140;-81
2022/11/09 06:27:22;;;;;;;4.50;1.17;;;12.90;81.10;;;;;;5015803;28;20113;-81
2022/11/09 06:29:48;;;;;;;2.03;1.30;;;12.90;80.60;;;;;;5015194;28;20026;-81
2022/11/09 06:32:13;;;;;;;2.83;1.30;;;12.90;81.00;;;;;;5015574;28;20025;-81
2022/11/09 06:34:39;;;;;;;2.47;1.02;;;12.90;81.00;;;;;;4998074;28;20041;-80
2022/11/09 06:37:04;;;;;;;1.90;1.00;;;12.90;81.20;;;;;;4998315;28;20028;-82
2022/11/09 06:39:30;;;;;;;2.25;1.55;;;12.90;81.50;;;;;;5015770;28;20026;-82
2022/11/09 06:41:55;;;;;;;2.40;1.02;;;12.90;81.80;;;;;;5015562;28;20050;-81
2022/11/09 06:44:21;;;;;;;1.48;1.10;;;12.90;81.60;;;;;;5015619;28;20032;-81
2022/11/09 06:46:46;;;;;;;3.38;1.00;;;12.90;81.40;;;;;;4997980;28;20026;-81
2022/11/09 06:49:12;;;;;;;1.98;1.20;;;12.90;82.70;;;;;;5015759;28;20076;-85
2022/11/09 06:51:38;;;;;;;2.60;1.30;;;12.90;81.40;;;;;;5015799;28;20026;-82
2022/11/09 06:54:03;;;;;;;5.57;1.23;;;12.90;82.10;;;;;;4998038;28;20038;-86
2022/11/09 06:56:29;;;;;;;1.70;1.02;;;12.90;81.10;;;;;;5016175;28;20045;-83
2022/11/09 06:58:55;;;;;;;3.40;1.48;;;13.00;80.80;;;;;;4998050;28;20030;-80
2022/11/09 07:01:25;;;;;;;2.60;1.05;;;13.00;80.60;;;;;;5015178;28;20026;-85
2022/11/09 07:03:51;;;;;;;2.75;1.08;;;13.00;80.40;;;;;;5014965;28;20018;-82
2022/11/09 07:06:16;;;;;;;1.63;1.10;;;13.00;79.70;;;;;;5014796;28;20494;-81
2022/11/09 07:08:42;;;;;;;2.42;1.10;;;13.00;79.70;;;;;;4997248;28;20502;-82
2022/11/09 07:11:11;;;;;;;2.90;1.38;;;13.10;79.70;;;;;;5014945;28;20385;-81
2022/11/09 07:13:37;;;;;;;5.00;1.58;;;13.10;79.90;;;;;;5014627;28;20113;-81
2022/11/09 07:16:04;;;;;;;3.58;0.93;;;13.10;80.30;;;;;;5014853;28;20033;-80
2022/11/09 07:18:29;;;;;;;1.63;0.65;;;13.10;79.90;;;;;;5014968;28;20478;-82
2022/11/09 07:20:55;;;;;;;1.90;1.00;;;13.10;79.90;;;;;;4996666;28;20026;-81
2022/11/09 07:23:20;;;;;;;4.10;1.23;;;13.10;80.20;;;;;;5014732;28;20022;-82
2022/11/09 07:25:46;;;;;;;3.58;1.08;;;13.10;80.90;;;;;;5014747;28;20021;-81
2022/11/09 07:28:12;;;;;;;2.28;0.82;;;13.10;80.90;;;;;;4997222;28;20113;-80
2022/11/09 07:30:38;;;;;;;2.55;1.00;;;13.00;80.70;;;;;;4997269;28;20030;-82
2022/11/09 07:33:12;;;;;;;2.40;1.00;;;13.00;79.70;;;;;;5014446;28;20034;-80
2022/11/09 07:35:37;;;;;;;2.50;1.00;;;13.10;80.40;;;;;;5014463;28;20462;-80
2022/11/09 07:38:03;;;;;;;3.67;0.85;;;13.10;80.80;;;;;;5014542;28;20029;-79
2022/11/09 07:40:29;;;;;;;3.80;0.90;;;13.10;80.90;;;;;;4996911;28;20029;-80
2022/11/09 07:42:59;;;;;;;2.20;0.63;;;13.00;81.40;;;;;;4996657;28;20050;-81
2022/11/09 07:45:24;;;;;;;4.03;0.85;;;13.10;81.60;;;;;;5014545;28;20018;-79
2022/11/09 07:47:58;;;;;;;1.88;1.15;;;12.90;80.80;;;;;;5014417;28;20494;-80
2022/11/09 07:50:24;;;;;;;2.05;1.08;;;13.00;81.70;;;;;;4996784;28;20387;-82
2022/11/09 07:52:49;;;;;;;3.45;0.95;;;12.90;82.30;;;;;;5014213;28;20497;-80
2022/11/09 07:55:16;;;;;;;2.90;0.90;;;12.90;83.00;;;;;;5014017;28;20529;-83
2022/11/09 07:57:43;;;;;;;2.00;1.10;;;12.90;81.60;;;;;;5014328;28;20049;-80
2022/11/09 08:00:10;;;;;;;3.53;1.10;;;12.90;82.20;;;;;;5014413;28;20108;-79
2022/11/09 08:02:35;;;;;;;2.97;1.30;;;12.90;81.60;;;;;;5013973;28;20130;-80
2022/11/09 08:05:02;;;;;;;1.80;1.27;;;12.90;82.00;;;;;;5014190;28;20069;-81
2022/11/09 08:07:28;;;;;;;3.72;1.15;;;12.80;82.60;;;;;;5014538;28;20025;-80
2022/11/09 08:09:53;;;;;;;3.80;1.15;;;12.80;82.10;;;;;;5013993;28;20026;-81
2022/11/09 08:12:19;;;;;;;4.07;1.15;;;12.80;82.30;;;;;;5013845;28;20024;-80
2022/11/09 08:14:45;;;;;;;1.80;1.05;;;12.80;82.70;;;;;;4996124;28;20046;-81
2022/11/09 08:17:10;;;;;;;6.68;1.20;;;12.80;82.50;;;;;;5013555;28;20022;-81
2022/11/09 08:19:36;;;;;;;2.63;1.23;;;12.70;82.70;;;;;;4996151;28;20060;-80
2022/11/09 08:22:01;;;;;;;1.83;1.02;;;12.70;82.70;;;;;;5012461;28;20096;-82
2022/11/09 08:24:27;;;;;;;1.35;0.80;;;12.80;82.90;;;;;;5013574;28;20459;-80
2022/11/09 08:26:52;;;;;;;1.80;1.17;;;12.80;82.50;;;;;;5013650;28;20033;-81
2022/11/09 08:29:18;;;;;;;2.60;1.65;;;12.80;82.80;;;;;;5013712;28;20045;-81
2022/11/09 08:31:43;;;;;;;3.50;1.50;;;12.80;82.80;;;;;;5013626;28;20021;-83
2022/11/09 08:34:18;;;;;;;1.98;1.30;;;12.90;82.30;;;;;;5013844;28;20093;-86
2022/11/09 08:36:44;;;;;;;5.25;1.65;;;13.00;82.10;;;;;;4999073;28;20033;-85
2022/11/09 08:39:10;;;;;;;3.80;1.30;;;13.00;81.70;;;;;;4996505;28;20022;-87
2022/11/09 08:41:36;;;;;;;2.70;1.38;;;13.00;81.50;;;;;;5014472;28;20037;-87
2022/11/09 08:44:02;;;;;;;2.35;1.27;;;12.90;81.80;;;;;;5014688;28;20042;-84
2022/11/09 08:46:27;;;;;;;3.53;1.27;;;12.90;81.60;;;;;;5007696;28;20306;-84
2022/11/09 08:48:53;;;;;;;4.53;1.60;;;12.80;81.40;;;;;;5005052;28;20025;-85
2022/11/09 08:51:18;;;;;;;3.47;1.70;;;12.80;81.80;;;;;;5005022;28;20033;-85
2022/11/09 08:53:44;;;;;;;3.92;1.55;;;12.80;82.30;;;;;;4993655;28;20125;-83
2022/11/09 08:56:11;;;;;;;4.60;1.30;;;12.70;83.90;;;;;;5014410;28;20026;-89
2022/11/09 08:58:37;;;;;;;4.13;1.52;;;12.70;83.40;;;;;;4996515;28;20072;-88
2022/11/09 09:01:08;;;;;;;2.95;1.40;;;12.60;83.80;;;;;;4996810;28;20030;-83
2022/11/09 09:03:33;;;;;;;4.55;1.67;;;12.60;83.70;;;;;;5013856;28;20079;-85
2022/11/09 09:06:05;;;;;;;3.25;1.58;;;12.70;84.00;;;;;;5014607;28;20021;-83
2022/11/09 09:08:31;;;;;;;2.60;1.40;;;12.70;83.90;;;;;;5014232;28;20028;-85
2022/11/09 09:10:56;;;;;;;5.05;1.88;;;12.80;84.30;;;;;;5013904;28;20022;-81
2022/11/09 09:13:22;;;;;;;1.90;1.35;;;12.80;84.20;;;;;;4995943;28;20037;-86
2022/11/09 09:15:49;;;;;;;3.40;1.40;;;12.70;85.10;;;;;;5014583;28;20032;-85
2022/11/09 09:18:14;;;;;;;6.30;1.60;;;12.70;85.40;;;;;;5014005;28;20072;-83
2022/11/09 09:20:40;;;;;;;5.43;1.60;;;12.60;85.90;;;;;;5015418;28;20034;-87
2022/11/09 09:23:06;;;;;;;4.90;2.10;;;12.60;86.40;;;;;;5014987;28;20033;-83
2022/11/09 09:25:31;;;;;;;2.63;2.10;;;12.50;86.50;;;;;;5014145;28;20026;-80
2022/11/09 09:27:57;;;;;;;3.33;1.98;;;12.50;86.10;;;;;;5014189;28;20062;-81
2022/11/09 09:30:23;;;;;;;2.63;1.63;;;12.50;86.10;;;;;;5014832;28;20022;-85
2022/11/09 09:32:48;;;;;;;4.65;1.95;;;12.60;86.00;;;;;;5014834;28;20030;-87
2022/11/09 09:35:14;;;;;;;3.63;1.70;;;12.70;85.50;;;;;;4997770;28;20033;-82
2022/11/09 09:37:41;;;;;;;3.33;1.63;;;12.90;85.20;;;;;;5014412;28;20382;-81
2022/11/09 09:40:18;;;;;;;4.47;1.95;;;13.00;84.70;;;;;;4996968;28;20513;-82
2022/11/09 09:42:44;;;;;;;3.28;1.65;;;13.20;84.10;;;;;;5014298;28;20050;-85
2022/11/09 09:45:18;;;;;;;2.80;1.50;;;13.30;83.00;;;;;;4997825;28;20045;-80
2022/11/09 09:47:50;;;;;;;2.13;1.40;;;13.40;82.70;;;;;;4999877;28;20022;-89
2022/11/09 09:50:23;;;;;;;1.77;1.40;;;13.50;83.20;;;;;;5017692;28;20025;-86
2022/11/09 09:53:26;;;;;;;3.22;1.00;;;13.60;82.40;;;;;;5018524;28;20037;-88
2022/11/09 09:56:17;;;;;;;2.20;1.13;;;13.80;81.10;;;;;;5018471;28;20054;-86
2022/11/09 09:58:48;;;;;;;1.15;0.80;;;13.80;79.90;;;;;;5017903;28;20022;-84
2022/11/09 10:01:19;;;;;;;3.00;1.10;;;13.90;79.10;;;;;;5017642;28;20040;-81
2022/11/09 10:03:48;;;;;;;1.70;0.88;;;13.80;78.40;;;;;;5017581;28;20026;-85
2022/11/09 10:06:33;;;;;;;1.58;0.90;;;13.90;79.30;;;;;;5017160;28;20451;-86
2022/11/09 10:09:15;;;;;;;1.35;0.90;;;13.80;78.30;;;;;;5017259;28;20022;-79
2022/11/09 10:11:52;;;;;;;2.50;1.02;;;14.00;78.70;;;;;;5000011;28;20071;-88
2022/11/09 10:14:48;;;;;;;0.95;0.70;;;14.00;78.00;;;;;;5016900;28;20483;-87
2022/11/09 10:17:20;;;;;;;2.17;0.50;;;13.90;77.80;;;;;;5034118;28;20025;-80
2022/11/09 10:20:12;;;;;;;2.00;0.80;;;13.80;77.00;;;;;;5037396;28;20032;-85
2022/11/09 10:22:47;;;;;;;2.15;0.82;;;13.80;77.10;;;;;;5036146;28;20032;-79
2022/11/09 10:25:17;;;;;;;;;;;13.80;77.30;;;;;;5036178;28;20057;-78
2022/11/09 10:28:07;;;;;;;0.93;0.70;;;13.80;76.50;;;;;;5035702;28;20003;-81
2022/11/09 10:30:34;;;;;;;0.82;0.57;;;13.70;76.90;;;;;;4999480;28;20033;-81
2022/11/09 10:33:19;;;;;;;1.38;0.82;;;13.70;76.10;;;;;;5015089;28;20444;-82
2022/11/09 10:35:52;;;;;;;0.93;0.47;;;13.80;75.70;;;;;;4997814;28;20498;-81
2022/11/09 10:38:24;;;;;;;1.25;0.47;;;13.80;75.60;;;;;;4997843;28;20395;-81
2022/11/09 10:41:02;;;;;;;0.57;0.50;;;14.00;75.40;;;;;;4997738;28;20026;-80
2022/11/09 10:43:28;;;;;;;0.35;0.35;;;14.10;74.70;;;;;;5007709;28;20495;-80
2022/11/09 10:46:05;;;;;;;2.25;0.93;;;14.20;74.50;;;;;;5015332;28;20022;-80
2022/11/09 10:48:37;;;;;;;1.35;0.60;;;14.20;73.70;;;;;;4997862;28;20057;-80
2022/11/09 10:51:03;;;;;;;3.03;0.68;;;14.20;72.70;;;;;;5015411;28;20018;-81
2022/11/09 10:53:33;;;;;;;0.68;0.50;;;14.10;72.10;;;;;;5015180;28;20117;-80
2022/11/09 10:56:10;;;;;;;1.17;0.65;;;14.10;72.00;;;;;;4996455;28;20073;-79
2022/11/09 10:58:46;;;;;;;3.10;0.88;;;14.10;72.90;;;;;;5014957;28;20022;-81
2022/11/09 11:01:14;;;;;;;1.13;0.85;;;14.10;72.60;;;;;;5015376;28;20080;-80
2022/11/09 11:03:41;;;;;;;1.52;0.98;;;14.20;72.40;;;;;;5014806;28;20032;-81
2022/11/09 11:06:21;;;;;;;2.00;1.38;;;14.20;71.40;;;;;;5015202;28;20033;-79
2022/11/09 11:08:56;;;;;;;1.30;1.20;;;14.10;71.30;;;;;;5014874;28;20032;-80
2022/11/09 11:11:34;;;;;;;3.20;0.95;;;14.10;71.60;;;;;;4997622;28;20026;-80
2022/11/09 11:14:14;;;;;;;1.80;0.77;;;14.10;71.40;;;;;;5014909;28;20069;-80
2022/11/09 11:16:42;;;;;;;2.20;0.85;;;14.00;72.00;;;;;;5015050;28;20029;-81
2022/11/09 11:19:40;;;;;;;0.63;0.38;;;14.00;70.50;;;;;;5014548;28;20034;-80
2022/11/09 11:22:18;;;;;;;5.13;0.70;;;14.00;70.10;;;;;;4975284;28;20393;-80
2022/11/09 11:24:52;;;;;;;2.50;0.75;;;14.00;69.60;;;;;;4997960;28;20075;-81
2022/11/09 11:27:42;;;;;;;0.80;0.52;;;14.00;70.10;;;;;;4999498;28;20515;-80
2022/11/09 11:30:27;;;;;;;0.88;0.70;;;14.00;68.40;;;;;;5014757;28;20034;-77
2022/11/09 11:32:53;;;;;;;0.93;0.73;;;14.10;68.50;;;;;;5014462;28;20018;-78
2022/11/09 11:35:40;;;;;;;2.75;0.63;;;14.20;68.00;;;;;;5014849;28;20490;-80
2022/11/09 11:38:39;;;;;;;2.75;0.82;;;14.30;67.20;;;;;;5014925;28;20021;-79
2022/11/09 11:41:32;;;;;;;1.40;0.60;;;14.40;66.90;;;;;;5014184;28;20053;-79
2022/11/09 11:44:17;;;;;;;2.30;0.55;;;14.50;65.40;;;;;;5014230;28;20092;-81
2022/11/09 11:46:47;;;;;;;1.13;0.60;;;14.50;66.80;;;;;;4997886;28;20100;-80
2022/11/09 11:49:39;;;;;;;2.90;0.90;;;14.50;66.70;;;;;;5014711;28;20470;-79
2022/11/09 11:52:26;;;;;;;1.13;0.70;;;14.50;66.50;;;;;;5014340;28;20064;-79
2022/11/09 11:55:18;;;;;;;2.47;0.70;;;14.40;65.70;;;;;;4995897;28;20034;-79
2022/11/09 11:58:03;;;;;;;3.30;0.82;;;14.40;66.50;;;;;;5012025;28;20038;-81
2022/11/09 12:00:34;;;;;;;2.63;0.80;;;14.30;67.20;;;;;;5014285;28;20036;-80
2022/11/09 12:03:14;;;;;;;1.00;0.70;;;14.30;67.30;;;;;;5014925;28;20018;-78
2022/11/09 12:06:18;;;;;;;1.15;0.60;;;14.30;67.30;;;;;;5014681;28;20032;-81
2022/11/09 12:08:58;;;;;;;1.85;0.85;;;14.30;65.60;;;;;;4997953;28;20488;-79
2022/11/09 12:11:41;;;;;;;3.45;0.90;;;14.30;66.40;;;;;;5015022;28;20045;-81
2022/11/09 12:14:45;;;;;;;0.85;0.50;;;14.20;65.30;;;;;;5014067;28;20058;-79
2022/11/09 12:17:24;;;;;;;0.63;0.50;;;14.20;66.70;;;;;;5014589;28;20474;-78
2022/11/09 12:20:17;;;;;;;0.70;0.57;;;14.20;66.50;;;;;;5014258;28;20448;-78
2022/11/09 12:22:58;;;;;;;1.10;0.77;;;14.20;67.00;;;;;;5013886;28;20097;-78
2022/11/09 12:25:35;;;;;;;3.17;0.70;;;14.20;66.80;;;;;;4996494;28;20025;-78
2022/11/09 12:28:01;;;;;;;0.77;0.68;;;14.20;66.90;;;;;;5014952;28;20076;-81
2022/11/09 12:30:38;;;;;;;3.72;0.65;;;14.20;67.10;;;;;;5005561;28;20026;-80
2022/11/09 12:33:12;;;;;;;3.08;0.40;;;14.20;68.10;;;;;;5018468;28;20025;-84
2022/11/09 12:35:54;;;;;;;1.95;0.80;;;14.20;68.00;;;;;;4996161;28;20198;-79
2022/11/09 12:38:35;;;;;;;3.35;0.75;;;14.20;68.60;;;;;;5013339;28;20440;-79
2022/11/09 12:41:18;;;;;;;0.63;0.52;;;14.20;68.60;;;;;;5012964;28;20040;-78
2022/11/09 12:43:53;;;;;;;2.58;0.77;;;14.20;68.70;;;;;;5013144;28;20053;-81
2022/11/09 12:46:29;;;;;;;2.95;0.60;;;14.30;68.80;;;;;;5013406;28;20025;-79
2022/11/09 12:48:59;;;;;;;0.80;0.40;;;14.30;68.30;;;;;;5014775;28;20022;-79
2022/11/09 12:51:25;;;;;;;3.60;0.90;;;14.30;68.60;;;;;;5005179;28;20042;-79
2022/11/09 12:53:51;;;;;;;2.28;0.80;;;14.30;68.50;;;;;;4995492;28;20048;-80
2022/11/09 12:56:23;;;;;;;1.73;0.60;;;14.30;68.80;;;;;;5013077;28;20048;-79
2022/11/09 12:58:48;;;;;;;3.38;0.75;;;14.30;68.80;;;;;;5013539;28;20060;-77
2022/11/09 13:01:32;;;;;;;1.80;0.50;;;14.30;68.70;;;;;;5013385;28;20026;-77
2022/11/09 13:04:00;;;;;;;2.50;0.60;;;14.30;69.30;;;;;;5013554;28;20497;-81
2022/11/09 13:06:29;;;;;;;1.58;0.52;;;14.30;69.30;;;;;;4996264;28;20042;-78
2022/11/09 13:09:14;;;;;;;0.65;0.60;;;14.30;70.30;;;;;;5014827;28;20509;-79
2022/11/09 13:11:46;;;;;;;1.63;0.60;;;14.30;69.50;;;;;;5016457;28;20021;-84
2022/11/09 13:14:21;;;;;;;1.05;0.57;;;14.20;69.30;;;;;;5022842;28;20312;-81
2022/11/09 13:16:51;;;;;;;2.05;0.57;;;14.20;70.20;;;;;;4997311;28;20106;-83
2022/11/09 13:19:34;;;;;;;2.83;0.55;;;14.20;70.30;;;;;;4995489;28;20129;-86